sensor_id;sensor_type;location;lat;lon;timestamp;P1;durP1;ratioP1;P2;durP2;ratioP2
5999;SDS011;3028;49.468;7.694;2023-04-07T00:01:10;6.85;;;6.25;;
5999;SDS011;3028;49.468;7.694;2023-04-07T00:03:12;6.22;;;5.72;;
5999;SDS011;3028;49.468;7.694;2023-04-07T00:05:14;4.32;;;4.03;;
5999;SDS011;3028;49.468;7.694;2023-04-07T00:07:19;5.10;;;4.70;;
5999;SDS011;3028;49.468;7.694;2023-04-07T00:09:21;4.80;;;4.50;;
5999;SDS011;3028;49.468;7.694;2023-04-07T00:11:23;5.57;;;5.18;;
5999;SDS011;3028;49.468;7.694;2023-04-07T00:13:24;5.57;;;5.00;;
5999;SDS011;3028;49.468;7.694;2023-04-07T00:15:27;5.55;;;4.93;;
5999;SDS011;3028;49.468;7.694;2023-04-07T00:17:29;5.43;;;4.97;;
5999;SDS011;3028;49.468;7.694;2023-04-07T00:19:31;4.55;;;4.25;;
5999;SDS011;3028;49.468;7.694;2023-04-07T00:21:34;6.15;;;5.65;;
5999;SDS011;3028;49.468;7.694;2023-04-07T00:23:35;5.40;;;5.00;;
5999;SDS011;3028;49.468;7.694;2023-04-07T00:25:38;6.40;;;5.43;;
5999;SDS011;3028;49.468;7.694;2023-04-07T00:27:39;5.57;;;5.07;;
5999;SDS011;3028;49.468;7.694;2023-04-07T00:29:41;5.68;;;5.28;;
5999;SDS011;3028;49.468;7.694;2023-04-07T00:31:44;6.72;;;5.93;;
5999;SDS011;3028;49.468;7.694;2023-04-07T00:33:45;5.90;;;5.00;;
5999;SDS011;3028;49.468;7.694;2023-04-07T00:35:49;4.88;;;4.53;;
5999;SDS011;3028;49.468;7.694;2023-04-07T00:37:51;5.07;;;4.60;;
5999;SDS011;3028;49.468;7.694;2023-04-07T00:39:53;5.82;;;5.40;;
5999;SDS011;3028;49.468;7.694;2023-04-07T00:41:56;5.60;;;5.20;;
5999;SDS011;3028;49.468;7.694;2023-04-07T00:43:58;4.50;;;4.20;;
5999;SDS011;3028;49.468;7.694;2023-04-07T00:45:59;5.13;;;4.72;;
5999;SDS011;3028;49.468;7.694;2023-04-07T00:48:01;5.85;;;5.35;;
5999;SDS011;3028;49.468;7.694;2023-04-07T00:50:03;5.47;;;4.97;;
5999;SDS011;3028;49.468;7.694;2023-04-07T00:52:06;5.05;;;4.65;;
5999;SDS011;3028;49.468;7.694;2023-04-07T00:54:09;6.05;;;5.20;;
5999;SDS011;3028;49.468;7.694;2023-04-07T00:56:11;5.13;;;4.72;;
5999;SDS011;3028;49.468;7.694;2023-04-07T00:58:13;6.38;;;5.68;;
5999;SDS011;3028;49.468;7.694;2023-04-07T01:00:15;6.18;;;5.32;;
5999;SDS011;3028;49.468;7.694;2023-04-07T01:08:16;4.72;;;4.32;;
5999;SDS011;3028;49.468;7.694;2023-04-07T01:10:47;4.82;;;4.22;;
5999;SDS011;3028;49.468;7.694;2023-04-07T01:12:56;4.22;;;3.83;;
5999;SDS011;3028;49.468;7.694;2023-04-07T01:15:06;6.97;;;5.22;;
5999;SDS011;3028;49.468;7.694;2023-04-07T01:17:11;5.57;;;4.93;;
5999;SDS011;3028;49.468;7.694;2023-04-07T01:19:37;4.70;;;4.40;;
5999;SDS011;3028;49.468;7.694;2023-04-07T01:21:43;6.00;;;5.28;;
5999;SDS011;3028;49.468;7.694;2023-04-07T01:31:00;5.55;;;5.15;;
5999;SDS011;3028;49.468;7.694;2023-04-07T01:33:02;5.40;;;5.10;;
5999;SDS011;3028;49.468;7.694;2023-04-07T01:35:05;5.63;;;5.22;;
5999;SDS011;3028;49.468;7.694;2023-04-07T01:37:10;5.93;;;5.53;;
5999;SDS011;3028;49.468;7.694;2023-04-07T01:39:12;5.78;;;5.30;;
5999;SDS011;3028;49.468;7.694;2023-04-07T01:41:14;5.40;;;4.95;;
5999;SDS011;3028;49.468;7.694;2023-04-07T01:43:16;6.95;;;6.32;;
5999;SDS011;3028;49.468;7.694;2023-04-07T01:45:18;5.80;;;5.40;;
5999;SDS011;3028;49.468;7.694;2023-04-07T01:47:20;6.03;;;5.53;;
5999;SDS011;3028;49.468;7.694;2023-04-07T01:49:23;6.82;;;6.32;;
5999;SDS011;3028;49.468;7.694;2023-04-07T01:51:26;6.03;;;5.53;;
5999;SDS011;3028;49.468;7.694;2023-04-07T01:53:29;5.25;;;4.85;;
5999;SDS011;3028;49.468;7.694;2023-04-07T01:55:31;6.68;;;6.18;;
5999;SDS011;3028;49.468;7.694;2023-04-07T01:57:33;5.80;;;5.30;;
5999;SDS011;3028;49.468;7.694;2023-04-07T01:59:34;6.22;;;5.72;;
5999;SDS011;3028;49.468;7.694;2023-04-07T02:01:36;6.30;;;5.80;;
5999;SDS011;3028;49.468;7.694;2023-04-07T02:03:39;5.05;;;4.65;;
5999;SDS011;3028;49.468;7.694;2023-04-07T02:05:46;6.97;;;6.32;;
5999;SDS011;3028;49.468;7.694;2023-04-07T02:07:51;5.70;;;5.18;;
5999;SDS011;3028;49.468;7.694;2023-04-07T02:09:55;5.32;;;4.93;;
5999;SDS011;3028;49.468;7.694;2023-04-07T02:11:59;5.80;;;5.18;;
5999;SDS011;3028;49.468;7.694;2023-04-07T02:14:03;6.35;;;5.85;;
5999;SDS011;3028;49.468;7.694;2023-04-07T02:16:08;5.95;;;5.55;;
5999;SDS011;3028;49.468;7.694;2023-04-07T02:18:11;5.43;;;5.03;;
5999;SDS011;3028;49.468;7.694;2023-04-07T02:20:14;6.63;;;6.00;;
5999;SDS011;3028;49.468;7.694;2023-04-07T02:22:17;6.10;;;5.60;;
5999;SDS011;3028;49.468;7.694;2023-04-07T02:24:19;6.47;;;5.97;;
5999;SDS011;3028;49.468;7.694;2023-04-07T02:26:22;6.80;;;6.20;;
5999;SDS011;3028;49.468;7.694;2023-04-07T02:28:23;6.03;;;5.43;;
5999;SDS011;3028;49.468;7.694;2023-04-07T02:30:26;5.68;;;5.18;;
5999;SDS011;3028;49.468;7.694;2023-04-07T02:32:29;6.22;;;5.72;;
5999;SDS011;3028;49.468;7.694;2023-04-07T02:34:31;5.95;;;5.28;;
5999;SDS011;3028;49.468;7.694;2023-04-07T02:36:32;6.45;;;5.95;;
5999;SDS011;3028;49.468;7.694;2023-04-07T02:38:34;6.03;;;5.50;;
5999;SDS011;3028;49.468;7.694;2023-04-07T02:40:36;4.45;;;4.15;;
5999;SDS011;3028;49.468;7.694;2023-04-07T02:42:38;5.93;;;5.30;;
5999;SDS011;3028;49.468;7.694;2023-04-07T02:44:40;5.60;;;5.18;;
5999;SDS011;3028;49.468;7.694;2023-04-07T02:46:42;4.78;;;4.43;;
5999;SDS011;3028;49.468;7.694;2023-04-07T02:48:43;5.88;;;5.35;;
5999;SDS011;3028;49.468;7.694;2023-04-07T02:50:45;4.95;;;4.55;;
5999;SDS011;3028;49.468;7.694;2023-04-07T02:52:47;4.88;;;4.57;;
5999;SDS011;3028;49.468;7.694;2023-04-07T02:54:48;5.70;;;5.20;;
5999;SDS011;3028;49.468;7.694;2023-04-07T02:56:50;5.75;;;5.35;;
5999;SDS011;3028;49.468;7.694;2023-04-07T02:58:52;6.35;;;5.75;;
5999;SDS011;3028;49.468;7.694;2023-04-07T03:00:54;5.32;;;4.93;;
5999;SDS011;3028;49.468;7.694;2023-04-07T03:02:55;5.15;;;4.68;;
5999;SDS011;3028;49.468;7.694;2023-04-07T03:04:57;4.55;;;4.25;;
5999;SDS011;3028;49.468;7.694;2023-04-07T03:06:59;4.78;;;4.47;;
5999;SDS011;3028;49.468;7.694;2023-04-07T03:09:01;6.10;;;5.40;;
5999;SDS011;3028;49.468;7.694;2023-04-07T03:11:03;5.85;;;5.43;;
5999;SDS011;3028;49.468;7.694;2023-04-07T03:13:05;5.40;;;5.00;;
5999;SDS011;3028;49.468;7.694;2023-04-07T03:15:08;5.63;;;5.13;;
5999;SDS011;3028;49.468;7.694;2023-04-07T03:17:10;6.30;;;5.28;;
5999;SDS011;3028;49.468;7.694;2023-04-07T03:19:12;5.70;;;5.30;;
5999;SDS011;3028;49.468;7.694;2023-04-07T03:21:14;5.95;;;5.47;;
5999;SDS011;3028;49.468;7.694;2023-04-07T03:23:16;6.28;;;5.25;;
5999;SDS011;3028;49.468;7.694;2023-04-07T03:25:17;6.25;;;5.80;;
5999;SDS011;3028;49.468;7.694;2023-04-07T03:27:19;6.20;;;5.70;;
5999;SDS011;3028;49.468;7.694;2023-04-07T03:29:21;5.53;;;5.05;;
5999;SDS011;3028;49.468;7.694;2023-04-07T03:31:23;5.95;;;5.47;;
5999;SDS011;3028;49.468;7.694;2023-04-07T03:33:25;6.47;;;5.97;;
5999;SDS011;3028;49.468;7.694;2023-04-07T03:35:27;5.75;;;5.25;;
5999;SDS011;3028;49.468;7.694;2023-04-07T03:37:29;6.18;;;5.65;;
5999;SDS011;3028;49.468;7.694;2023-04-07T03:39:30;6.47;;;5.88;;
5999;SDS011;3028;49.468;7.694;2023-04-07T03:41:32;6.95;;;6.32;;
5999;SDS011;3028;49.468;7.694;2023-04-07T03:43:34;7.07;;;5.80;;
5999;SDS011;3028;49.468;7.694;2023-04-07T03:45:36;7.55;;;6.03;;
5999;SDS011;3028;49.468;7.694;2023-04-07T03:47:38;6.57;;;6.03;;
5999;SDS011;3028;49.468;7.694;2023-04-07T03:49:40;6.20;;;5.70;;
5999;SDS011;3028;49.468;7.694;2023-04-07T03:51:41;6.40;;;5.93;;
5999;SDS011;3028;49.468;7.694;2023-04-07T03:53:43;6.53;;;5.82;;
5999;SDS011;3028;49.468;7.694;2023-04-07T03:55:45;4.85;;;4.55;;
5999;SDS011;3028;49.468;7.694;2023-04-07T03:57:47;6.15;;;5.65;;
5999;SDS011;3028;49.468;7.694;2023-04-07T03:59:49;7.13;;;6.32;;
5999;SDS011;3028;49.468;7.694;2023-04-07T04:01:51;7.60;;;6.28;;
5999;SDS011;3028;49.468;7.694;2023-04-07T04:03:53;6.68;;;6.18;;
5999;SDS011;3028;49.468;7.694;2023-04-07T04:05:55;7.40;;;6.72;;
5999;SDS011;3028;49.468;7.694;2023-04-07T04:07:57;7.15;;;6.60;;
5999;SDS011;3028;49.468;7.694;2023-04-07T04:09:58;5.85;;;5.35;;
5999;SDS011;3028;49.468;7.694;2023-04-07T04:12:00;6.18;;;5.68;;
5999;SDS011;3028;49.468;7.694;2023-04-07T04:14:02;5.95;;;5.38;;
5999;SDS011;3028;49.468;7.694;2023-04-07T04:16:04;7.45;;;6.95;;
5999;SDS011;3028;49.468;7.694;2023-04-07T04:18:06;6.75;;;6.25;;
5999;SDS011;3028;49.468;7.694;2023-04-07T04:20:09;5.03;;;4.63;;
5999;SDS011;3028;49.468;7.694;2023-04-07T04:22:11;5.60;;;5.20;;
5999;SDS011;3028;49.468;7.694;2023-04-07T04:24:12;5.70;;;5.20;;
5999;SDS011;3028;49.468;7.694;2023-04-07T04:26:14;5.90;;;5.40;;
5999;SDS011;3028;49.468;7.694;2023-04-07T04:28:16;6.25;;;5.75;;
5999;SDS011;3028;49.468;7.694;2023-04-07T04:30:18;6.60;;;6.00;;
5999;SDS011;3028;49.468;7.694;2023-04-07T04:32:19;6.30;;;5.80;;
5999;SDS011;3028;49.468;7.694;2023-04-07T04:34:21;5.72;;;5.15;;
5999;SDS011;3028;49.468;7.694;2023-04-07T04:36:23;6.05;;;5.55;;
5999;SDS011;3028;49.468;7.694;2023-04-07T04:38:25;5.45;;;4.97;;
5999;SDS011;3028;49.468;7.694;2023-04-07T04:40:26;5.78;;;5.38;;
5999;SDS011;3028;49.468;7.694;2023-04-07T04:42:28;6.15;;;5.65;;
5999;SDS011;3028;49.468;7.694;2023-04-07T04:44:31;6.07;;;5.57;;
5999;SDS011;3028;49.468;7.694;2023-04-07T04:46:33;7.80;;;6.10;;
5999;SDS011;3028;49.468;7.694;2023-04-07T04:48:38;13.65;;;7.18;;
5999;SDS011;3028;49.468;7.694;2023-04-07T04:50:40;6.80;;;6.30;;
5999;SDS011;3028;49.468;7.694;2023-04-07T04:52:42;6.80;;;6.30;;
5999;SDS011;3028;49.468;7.694;2023-04-07T04:54:44;7.07;;;6.57;;
5999;SDS011;3028;49.468;7.694;2023-04-07T04:56:49;6.90;;;6.40;;
5999;SDS011;3028;49.468;7.694;2023-04-07T04:58:51;7.70;;;5.60;;
5999;SDS011;3028;49.468;7.694;2023-04-07T05:00:53;7.00;;;6.45;;
5999;SDS011;3028;49.468;7.694;2023-04-07T05:02:59;7.45;;;6.85;;
5999;SDS011;3028;49.468;7.694;2023-04-07T05:05:01;7.00;;;6.43;;
5999;SDS011;3028;49.468;7.694;2023-04-07T05:07:03;6.38;;;5.88;;
5999;SDS011;3028;49.468;7.694;2023-04-07T05:09:04;6.90;;;6.35;;
5999;SDS011;3028;49.468;7.694;2023-04-07T05:11:06;7.07;;;6.47;;
5999;SDS011;3028;49.468;7.694;2023-04-07T05:13:08;6.53;;;5.97;;
5999;SDS011;3028;49.468;7.694;2023-04-07T05:15:10;6.47;;;5.97;;
5999;SDS011;3028;49.468;7.694;2023-04-07T05:17:12;6.60;;;6.07;;
5999;SDS011;3028;49.468;7.694;2023-04-07T05:19:13;7.30;;;6.07;;
5999;SDS011;3028;49.468;7.694;2023-04-07T05:21:15;6.80;;;6.30;;
5999;SDS011;3028;49.468;7.694;2023-04-07T05:23:17;7.30;;;6.70;;
5999;SDS011;3028;49.468;7.694;2023-04-07T05:25:19;8.25;;;6.28;;
5999;SDS011;3028;49.468;7.694;2023-04-07T05:27:21;6.95;;;5.50;;
5999;SDS011;3028;49.468;7.694;2023-04-07T05:29:22;7.05;;;6.55;;
5999;SDS011;3028;49.468;7.694;2023-04-07T05:31:24;6.55;;;6.05;;
5999;SDS011;3028;49.468;7.694;2023-04-07T05:33:26;6.45;;;5.95;;
5999;SDS011;3028;49.468;7.694;2023-04-07T05:35:28;7.03;;;6.53;;
5999;SDS011;3028;49.468;7.694;2023-04-07T05:37:30;7.03;;;6.53;;
5999;SDS011;3028;49.468;7.694;2023-04-07T05:39:31;8.73;;;8.02;;
5999;SDS011;3028;49.468;7.694;2023-04-07T05:41:33;8.15;;;7.55;;
5999;SDS011;3028;49.468;7.694;2023-04-07T05:43:35;9.20;;;8.52;;
5999;SDS011;3028;49.468;7.694;2023-04-07T05:45:37;10.35;;;8.73;;
5999;SDS011;3028;49.468;7.694;2023-04-07T05:47:38;9.05;;;8.30;;
5999;SDS011;3028;49.468;7.694;2023-04-07T05:49:40;8.35;;;7.57;;
5999;SDS011;3028;49.468;7.694;2023-04-07T05:51:46;9.40;;;8.60;;
5999;SDS011;3028;49.468;7.694;2023-04-07T05:53:49;8.85;;;8.15;;
5999;SDS011;3028;49.468;7.694;2023-04-07T05:55:51;9.02;;;8.32;;
5999;SDS011;3028;49.468;7.694;2023-04-07T05:57:53;9.00;;;8.10;;
5999;SDS011;3028;49.468;7.694;2023-04-07T05:59:55;9.73;;;8.93;;
5999;SDS011;3028;49.468;7.694;2023-04-07T06:01:56;9.45;;;8.65;;
5999;SDS011;3028;49.468;7.694;2023-04-07T06:03:58;9.88;;;9.07;;
5999;SDS011;3028;49.468;7.694;2023-04-07T06:06:01;9.20;;;8.38;;
5999;SDS011;3028;49.468;7.694;2023-04-07T06:08:03;9.25;;;8.45;;
5999;SDS011;3028;49.468;7.694;2023-04-07T06:10:05;10.15;;;9.35;;
5999;SDS011;3028;49.468;7.694;2023-04-07T06:12:10;10.07;;;9.07;;
5999;SDS011;3028;49.468;7.694;2023-04-07T06:14:12;10.50;;;9.70;;
5999;SDS011;3028;49.468;7.694;2023-04-07T06:16:14;10.70;;;9.65;;
5999;SDS011;3028;49.468;7.694;2023-04-07T06:18:19;9.73;;;9.02;;
5999;SDS011;3028;49.468;7.694;2023-04-07T06:20:20;10.30;;;9.48;;
5999;SDS011;3028;49.468;7.694;2023-04-07T06:22:23;10.10;;;9.20;;
5999;SDS011;3028;49.468;7.694;2023-04-07T06:24:25;10.25;;;9.45;;
5999;SDS011;3028;49.468;7.694;2023-04-07T06:26:27;12.35;;;10.38;;
5999;SDS011;3028;49.468;7.694;2023-04-07T06:28:29;12.15;;;11.15;;
5999;SDS011;3028;49.468;7.694;2023-04-07T06:30:31;13.05;;;11.95;;
5999;SDS011;3028;49.468;7.694;2023-04-07T06:32:32;11.02;;;10.23;;
5999;SDS011;3028;49.468;7.694;2023-04-07T06:34:34;10.10;;;9.30;;
5999;SDS011;3028;49.468;7.694;2023-04-07T06:36:36;10.27;;;9.38;;
5999;SDS011;3028;49.468;7.694;2023-04-07T06:38:38;11.27;;;10.00;;
5999;SDS011;3028;49.468;7.694;2023-04-07T06:40:40;9.27;;;8.45;;
5999;SDS011;3028;49.468;7.694;2023-04-07T06:42:41;11.25;;;9.18;;
5999;SDS011;3028;49.468;7.694;2023-04-07T06:44:43;11.15;;;9.70;;
5999;SDS011;3028;49.468;7.694;2023-04-07T06:46:48;10.35;;;9.55;;
5999;SDS011;3028;49.468;7.694;2023-04-07T06:48:53;10.15;;;9.35;;
5999;SDS011;3028;49.468;7.694;2023-04-07T06:50:55;10.13;;;9.38;;
5999;SDS011;3028;49.468;7.694;2023-04-07T06:52:56;8.38;;;7.68;;
5999;SDS011;3028;49.468;7.694;2023-04-07T06:54:58;9.68;;;8.98;;
5999;SDS011;3028;49.468;7.694;2023-04-07T06:57:00;9.20;;;8.35;;
5999;SDS011;3028;49.468;7.694;2023-04-07T06:59:01;10.88;;;9.98;;
5999;SDS011;3028;49.468;7.694;2023-04-07T07:01:04;10.25;;;9.55;;
5999;SDS011;3028;49.468;7.694;2023-04-07T07:03:06;9.55;;;8.85;;
5999;SDS011;3028;49.468;7.694;2023-04-07T07:05:08;8.88;;;8.18;;
5999;SDS011;3028;49.468;7.694;2023-04-07T07:07:11;10.73;;;9.82;;
5999;SDS011;3028;49.468;7.694;2023-04-07T07:09:13;10.13;;;9.32;;
5999;SDS011;3028;49.468;7.694;2023-04-07T07:11:15;9.80;;;8.70;;
5999;SDS011;3028;49.468;7.694;2023-04-07T07:13:17;10.38;;;9.50;;
5999;SDS011;3028;49.468;7.694;2023-04-07T07:15:19;10.45;;;9.65;;
5999;SDS011;3028;49.468;7.694;2023-04-07T07:17:21;11.80;;;10.77;;
5999;SDS011;3028;49.468;7.694;2023-04-07T07:19:23;10.80;;;10.00;;
5999;SDS011;3028;49.468;7.694;2023-04-07T07:21:24;11.10;;;10.15;;
5999;SDS011;3028;49.468;7.694;2023-04-07T07:23:26;10.35;;;9.55;;
5999;SDS011;3028;49.468;7.694;2023-04-07T07:25:28;10.55;;;9.75;;
5999;SDS011;3028;49.468;7.694;2023-04-07T07:27:33;11.38;;;10.48;;
5999;SDS011;3028;49.468;7.694;2023-04-07T07:29:34;11.68;;;10.38;;
5999;SDS011;3028;49.468;7.694;2023-04-07T07:31:36;12.25;;;10.48;;
5999;SDS011;3028;49.468;7.694;2023-04-07T07:33:38;11.70;;;10.70;;
5999;SDS011;3028;49.468;7.694;2023-04-07T07:35:41;12.95;;;11.68;;
5999;SDS011;3028;49.468;7.694;2023-04-07T07:37:43;12.13;;;11.10;;
5999;SDS011;3028;49.468;7.694;2023-04-07T07:39:45;11.95;;;10.75;;
5999;SDS011;3028;49.468;7.694;2023-04-07T07:41:46;11.15;;;10.05;;
5999;SDS011;3028;49.468;7.694;2023-04-07T07:43:48;12.45;;;11.23;;
5999;SDS011;3028;49.468;7.694;2023-04-07T07:45:50;11.27;;;10.27;;
5999;SDS011;3028;49.468;7.694;2023-04-07T07:47:52;10.13;;;9.32;;
5999;SDS011;3028;49.468;7.694;2023-04-07T07:49:53;13.27;;;12.05;;
5999;SDS011;3028;49.468;7.694;2023-04-07T07:51:55;17.80;;;16.10;;
5999;SDS011;3028;49.468;7.694;2023-04-07T07:53:57;17.88;;;16.17;;
5999;SDS011;3028;49.468;7.694;2023-04-07T07:55:59;14.15;;;12.70;;
5999;SDS011;3028;49.468;7.694;2023-04-07T07:58:02;12.95;;;11.75;;
5999;SDS011;3028;49.468;7.694;2023-04-07T08:00:04;12.25;;;11.32;;
5999;SDS011;3028;49.468;7.694;2023-04-07T08:02:06;13.38;;;12.00;;
5999;SDS011;3028;49.468;7.694;2023-04-07T08:04:09;14.27;;;12.20;;
5999;SDS011;3028;49.468;7.694;2023-04-07T08:06:11;12.45;;;11.27;;
5999;SDS011;3028;49.468;7.694;2023-04-07T08:08:13;10.35;;;9.38;;
5999;SDS011;3028;49.468;7.694;2023-04-07T08:10:14;10.10;;;9.30;;
5999;SDS011;3028;49.468;7.694;2023-04-07T08:12:16;10.02;;;9.18;;
5999;SDS011;3028;49.468;7.694;2023-04-07T08:14:18;10.77;;;9.88;;
5999;SDS011;3028;49.468;7.694;2023-04-07T08:16:23;10.25;;;9.35;;
5999;SDS011;3028;49.468;7.694;2023-04-07T08:18:28;10.77;;;9.77;;
5999;SDS011;3028;49.468;7.694;2023-04-07T08:20:30;17.20;;;12.40;;
5999;SDS011;3028;49.468;7.694;2023-04-07T08:22:32;12.23;;;10.60;;
5999;SDS011;3028;49.468;7.694;2023-04-07T08:24:33;12.85;;;11.75;;
5999;SDS011;3028;49.468;7.694;2023-04-07T08:26:35;11.02;;;10.02;;
5999;SDS011;3028;49.468;7.694;2023-04-07T08:28:37;16.58;;;10.38;;
5999;SDS011;3028;49.468;7.694;2023-04-07T08:30:39;12.27;;;11.07;;
5999;SDS011;3028;49.468;7.694;2023-04-07T08:32:44;10.93;;;9.93;;
5999;SDS011;3028;49.468;7.694;2023-04-07T08:34:46;9.77;;;8.98;;
5999;SDS011;3028;49.468;7.694;2023-04-07T08:36:48;9.93;;;9.13;;
5999;SDS011;3028;49.468;7.694;2023-04-07T08:38:49;9.27;;;8.23;;
5999;SDS011;3028;49.468;7.694;2023-04-07T08:40:53;12.88;;;8.73;;
5999;SDS011;3028;49.468;7.694;2023-04-07T08:42:59;8.80;;;8.00;;
5999;SDS011;3028;49.468;7.694;2023-04-07T08:45:05;8.35;;;7.47;;
5999;SDS011;3028;49.468;7.694;2023-04-07T08:47:07;9.77;;;8.88;;
5999;SDS011;3028;49.468;7.694;2023-04-07T08:49:11;13.48;;;9.10;;
5999;SDS011;3028;49.468;7.694;2023-04-07T08:51:14;9.88;;;8.98;;
5999;SDS011;3028;49.468;7.694;2023-04-07T08:53:17;9.13;;;8.32;;
5999;SDS011;3028;49.468;7.694;2023-04-07T08:55:19;8.13;;;7.53;;
5999;SDS011;3028;49.468;7.694;2023-04-07T08:57:21;9.25;;;8.43;;
5999;SDS011;3028;49.468;7.694;2023-04-07T08:59:23;10.55;;;8.80;;
5999;SDS011;3028;49.468;7.694;2023-04-07T09:01:28;10.63;;;9.73;;
5999;SDS011;3028;49.468;7.694;2023-04-07T09:03:32;12.27;;;9.93;;
5999;SDS011;3028;49.468;7.694;2023-04-07T09:05:34;11.18;;;10.07;;
5999;SDS011;3028;49.468;7.694;2023-04-07T09:07:37;13.18;;;12.05;;
5999;SDS011;3028;49.468;7.694;2023-04-07T09:09:40;11.68;;;10.68;;
5999;SDS011;3028;49.468;7.694;2023-04-07T09:11:42;11.93;;;10.73;;
5999;SDS011;3028;49.468;7.694;2023-04-07T09:13:44;14.43;;;13.13;;
5999;SDS011;3028;49.468;7.694;2023-04-07T09:15:46;12.60;;;11.45;;
5999;SDS011;3028;49.468;7.694;2023-04-07T09:17:48;13.23;;;12.13;;
5999;SDS011;3028;49.468;7.694;2023-04-07T09:19:51;12.20;;;11.20;;
5999;SDS011;3028;49.468;7.694;2023-04-07T09:21:53;10.43;;;9.52;;
5999;SDS011;3028;49.468;7.694;2023-04-07T09:23:55;10.52;;;9.70;;
5999;SDS011;3028;49.468;7.694;2023-04-07T09:25:57;10.13;;;9.23;;
5999;SDS011;3028;49.468;7.694;2023-04-07T09:30:12;9.45;;;8.65;;
5999;SDS011;3028;49.468;7.694;2023-04-07T09:32:36;10.88;;;9.23;;
5999;SDS011;3028;49.468;7.694;2023-04-07T09:34:41;16.48;;;9.68;;
5999;SDS011;3028;49.468;7.694;2023-04-07T09:36:43;10.85;;;9.90;;
5999;SDS011;3028;49.468;7.694;2023-04-07T09:38:45;11.35;;;10.35;;
5999;SDS011;3028;49.468;7.694;2023-04-07T09:40:47;11.45;;;10.45;;
5999;SDS011;3028;49.468;7.694;2023-04-07T09:42:49;10.60;;;9.77;;
5999;SDS011;3028;49.468;7.694;2023-04-07T09:44:51;11.63;;;10.52;;
5999;SDS011;3028;49.468;7.694;2023-04-07T09:46:57;12.73;;;11.32;;
5999;SDS011;3028;49.468;7.694;2023-04-07T09:49:02;11.48;;;10.68;;
5999;SDS011;3028;49.468;7.694;2023-04-07T09:51:11;11.05;;;10.07;;
5999;SDS011;3028;49.468;7.694;2023-04-07T09:53:14;17.02;;;11.73;;
5999;SDS011;3028;49.468;7.694;2023-04-07T09:55:19;10.05;;;9.18;;
5999;SDS011;3028;49.468;7.694;2023-04-07T09:57:21;10.43;;;9.48;;
5999;SDS011;3028;49.468;7.694;2023-04-07T09:59:24;11.38;;;10.48;;
5999;SDS011;3028;49.468;7.694;2023-04-07T10:01:26;10.13;;;9.23;;
5999;SDS011;3028;49.468;7.694;2023-04-07T10:03:28;8.88;;;8.10;;
5999;SDS011;3028;49.468;7.694;2023-04-07T10:05:30;9.40;;;8.45;;
5999;SDS011;3028;49.468;7.694;2023-04-07T10:07:33;8.95;;;8.20;;
5999;SDS011;3028;49.468;7.694;2023-04-07T10:09:35;8.02;;;7.35;;
5999;SDS011;3028;49.468;7.694;2023-04-07T10:11:37;7.28;;;6.68;;
5999;SDS011;3028;49.468;7.694;2023-04-07T10:13:39;9.48;;;7.88;;
5999;SDS011;3028;49.468;7.694;2023-04-07T10:15:41;8.52;;;7.05;;
5999;SDS011;3028;49.468;7.694;2023-04-07T10:17:44;7.40;;;6.82;;
5999;SDS011;3028;49.468;7.694;2023-04-07T10:19:50;7.70;;;7.00;;
5999;SDS011;3028;49.468;7.694;2023-04-07T10:21:53;8.48;;;7.72;;
5999;SDS011;3028;49.468;7.694;2023-04-07T10:23:57;7.82;;;7.15;;
5999;SDS011;3028;49.468;7.694;2023-04-07T10:26:00;8.40;;;7.72;;
5999;SDS011;3028;49.468;7.694;2023-04-07T10:28:03;7.90;;;7.20;;
5999;SDS011;3028;49.468;7.694;2023-04-07T10:30:13;8.43;;;6.35;;
5999;SDS011;3028;49.468;7.694;2023-04-07T10:32:17;6.70;;;6.13;;
5999;SDS011;3028;49.468;7.694;2023-04-07T10:34:54;9.10;;;8.02;;
5999;SDS011;3028;49.468;7.694;2023-04-07T10:37:08;8.20;;;7.40;;
5999;SDS011;3028;49.468;7.694;2023-04-07T10:41:34;5.20;;;4.70;;
5999;SDS011;3028;49.468;7.694;2023-04-07T10:43:40;5.80;;;5.20;;
5999;SDS011;3028;49.468;7.694;2023-04-07T10:50:14;5.57;;;5.07;;
5999;SDS011;3028;49.468;7.694;2023-04-07T10:52:21;5.43;;;5.00;;
5999;SDS011;3028;49.468;7.694;2023-04-07T10:54:23;5.38;;;4.97;;
5999;SDS011;3028;49.468;7.694;2023-04-07T10:56:58;6.10;;;5.70;;
5999;SDS011;3028;49.468;7.694;2023-04-07T10:59:15;5.72;;;5.30;;
5999;SDS011;3028;49.468;7.694;2023-04-07T11:01:17;6.32;;;5.82;;
5999;SDS011;3028;49.468;7.694;2023-04-07T11:03:21;6.65;;;6.15;;
5999;SDS011;3028;49.468;7.694;2023-04-07T11:05:24;6.82;;;6.15;;
5999;SDS011;3028;49.468;7.694;2023-04-07T11:07:48;6.38;;;5.57;;
5999;SDS011;3028;49.468;7.694;2023-04-07T11:10:07;5.43;;;4.82;;
5999;SDS011;3028;49.468;7.694;2023-04-07T11:12:32;5.22;;;4.82;;
5999;SDS011;3028;49.468;7.694;2023-04-07T11:14:32;6.18;;;5.65;;
5999;SDS011;3028;49.468;7.694;2023-04-07T11:16:38;5.82;;;4.55;;
5999;SDS011;3028;49.468;7.694;2023-04-07T11:18:42;5.95;;;5.45;;
5999;SDS011;3028;49.468;7.694;2023-04-07T11:23:00;5.20;;;4.80;;
5999;SDS011;3028;49.468;7.694;2023-04-07T11:25:02;4.93;;;4.43;;
5999;SDS011;3028;49.468;7.694;2023-04-07T11:27:04;5.70;;;5.20;;
5999;SDS011;3028;49.468;7.694;2023-04-07T11:29:06;5.18;;;4.78;;
5999;SDS011;3028;49.468;7.694;2023-04-07T11:31:08;4.85;;;4.15;;
5999;SDS011;3028;49.468;7.694;2023-04-07T11:33:13;3.50;;;3.20;;
5999;SDS011;3028;49.468;7.694;2023-04-07T11:35:17;4.78;;;4.38;;
5999;SDS011;3028;49.468;7.694;2023-04-07T11:37:20;4.25;;;3.90;;
5999;SDS011;3028;49.468;7.694;2023-04-07T11:39:26;3.45;;;3.15;;
5999;SDS011;3028;49.468;7.694;2023-04-07T11:41:31;4.30;;;3.55;;
5999;SDS011;3028;49.468;7.694;2023-04-07T11:43:33;3.65;;;3.35;;
5999;SDS011;3028;49.468;7.694;2023-04-07T11:45:36;8.50;;;3.50;;
5999;SDS011;3028;49.468;7.694;2023-04-07T11:47:38;2.67;;;2.45;;
5999;SDS011;3028;49.468;7.694;2023-04-07T11:49:44;3.28;;;2.97;;
5999;SDS011;3028;49.468;7.694;2023-04-07T11:51:47;3.55;;;2.42;;
5999;SDS011;3028;49.468;7.694;2023-04-07T11:53:55;3.47;;;3.20;;
5999;SDS011;3028;49.468;7.694;2023-04-07T11:56:04;2.95;;;2.72;;
5999;SDS011;3028;49.468;7.694;2023-04-07T11:58:09;3.67;;;3.00;;
5999;SDS011;3028;49.468;7.694;2023-04-07T12:00:12;3.20;;;3.00;;
5999;SDS011;3028;49.468;7.694;2023-04-07T12:02:34;3.75;;;3.45;;
5999;SDS011;3028;49.468;7.694;2023-04-07T12:04:37;3.45;;;3.20;;
5999;SDS011;3028;49.468;7.694;2023-04-07T12:06:41;3.22;;;2.97;;
5999;SDS011;3028;49.468;7.694;2023-04-07T12:08:43;3.03;;;2.83;;
5999;SDS011;3028;49.468;7.694;2023-04-07T12:10:45;3.75;;;3.45;;
5999;SDS011;3028;49.468;7.694;2023-04-07T12:12:47;2.80;;;2.60;;
5999;SDS011;3028;49.468;7.694;2023-04-07T12:14:49;3.45;;;3.15;;
5999;SDS011;3028;49.468;7.694;2023-04-07T12:16:52;3.03;;;2.47;;
5999;SDS011;3028;49.468;7.694;2023-04-07T12:18:56;4.90;;;2.92;;
5999;SDS011;3028;49.468;7.694;2023-04-07T12:20:58;3.63;;;2.95;;
5999;SDS011;3028;49.468;7.694;2023-04-07T12:23:00;6.18;;;4.03;;
5999;SDS011;3028;49.468;7.694;2023-04-07T12:25:02;5.75;;;5.07;;
5999;SDS011;3028;49.468;7.694;2023-04-07T12:27:04;2.20;;;2.10;;
5999;SDS011;3028;49.468;7.694;2023-04-07T12:29:05;3.33;;;2.92;;
5999;SDS011;3028;49.468;7.694;2023-04-07T12:31:07;3.25;;;2.70;;
5999;SDS011;3028;49.468;7.694;2023-04-07T12:33:09;2.17;;;1.88;;
5999;SDS011;3028;49.468;7.694;2023-04-07T12:35:10;2.22;;;2.13;;
5999;SDS011;3028;49.468;7.694;2023-04-07T12:37:12;2.72;;;2.22;;
5999;SDS011;3028;49.468;7.694;2023-04-07T12:39:14;2.63;;;2.42;;
5999;SDS011;3028;49.468;7.694;2023-04-07T12:41:16;1.70;;;1.60;;
5999;SDS011;3028;49.468;7.694;2023-04-07T12:43:18;1.77;;;1.67;;
5999;SDS011;3028;49.468;7.694;2023-04-07T12:45:20;2.05;;;1.83;;
5999;SDS011;3028;49.468;7.694;2023-04-07T12:47:22;2.00;;;1.80;;
5999;SDS011;3028;49.468;7.694;2023-04-07T12:49:24;1.92;;;1.80;;
5999;SDS011;3028;49.468;7.694;2023-04-07T12:51:26;2.45;;;2.25;;
5999;SDS011;3028;49.468;7.694;2023-04-07T12:53:28;2.17;;;2.03;;
5999;SDS011;3028;49.468;7.694;2023-04-07T12:55:30;1.75;;;1.63;;
5999;SDS011;3028;49.468;7.694;2023-04-07T12:57:36;1.98;;;1.88;;
5999;SDS011;3028;49.468;7.694;2023-04-07T12:59:38;1.75;;;1.65;;
5999;SDS011;3028;49.468;7.694;2023-04-07T13:01:40;2.47;;;1.73;;
5999;SDS011;3028;49.468;7.694;2023-04-07T13:03:41;1.67;;;1.58;;
5999;SDS011;3028;49.468;7.694;2023-04-07T13:05:43;1.65;;;1.55;;